createdAt,value
2023-04-19T00:00:19.400Z,25.20
2023-04-19T00:01:19.356Z,24.20
2023-04-19T00:02:19.550Z,26.00
2023-04-19T00:03:19.477Z,26.20
2023-04-19T00:04:19.618Z,24.50
2023-04-19T00:05:19.334Z,25.20
2023-04-19T00:06:19.304Z,24.80
2023-04-19T00:07:19.296Z,25.60
2023-04-19T00:08:19.288Z,26.50
2023-04-19T00:09:19.289Z,25.40
2023-04-19T00:10:19.252Z,25.80
2023-04-19T00:11:19.251Z,26.20
2023-04-19T00:12:19.338Z,25.50
2023-04-19T00:13:19.220Z,26.10
2023-04-19T00:14:19.242Z,26.80
2023-04-19T00:15:19.213Z,23.50
2023-04-19T00:16:19.206Z,26.50
2023-04-19T00:17:19.175Z,28.90
2023-04-19T00:18:19.160Z,24.80
2023-04-19T00:19:19.165Z,29.50
2023-04-19T00:20:19.151Z,25.50
2023-04-19T00:21:19.141Z,26.10
2023-04-19T00:22:19.116Z,28.80
2023-04-19T00:23:19.103Z,27.60
2023-04-19T00:24:19.114Z,24.50
2023-04-19T00:25:19.100Z,27.10
2023-04-19T00:26:19.110Z,26.70
2023-04-19T00:27:19.084Z,27.10
2023-04-19T00:28:19.086Z,28.00
2023-04-19T00:29:19.034Z,28.70
2023-04-19T00:30:19.025Z,26.60
2023-04-19T00:31:19.056Z,27.20
2023-04-19T00:32:19.036Z,29.90
2023-04-19T00:33:19.020Z,25.80
2023-04-19T00:34:18.982Z,27.40
2023-04-19T00:35:18.963Z,26.90
2023-04-19T00:36:18.996Z,26.80
2023-04-19T00:37:18.960Z,26.70
2023-04-19T00:38:18.948Z,27.60
2023-04-19T00:39:18.945Z,27.40
2023-04-19T00:40:18.908Z,27.20
2023-04-19T00:41:18.898Z,25.90
2023-04-19T00:42:18.881Z,28.50
2023-04-19T00:43:18.870Z,29.00
2023-04-19T00:44:18.982Z,27.90
2023-04-19T00:45:18.890Z,26.00
2023-04-19T00:46:18.890Z,27.60
2023-04-19T00:47:18.824Z,29.80
2023-04-19T00:48:18.822Z,28.00
2023-04-19T00:49:18.837Z,24.40
2023-04-19T00:50:18.825Z,27.20
2023-04-19T00:51:18.819Z,27.40
2023-04-19T00:52:18.772Z,26.60
2023-04-19T00:57:59.506Z,28.80
2023-04-19T00:58:59.450Z,26.70
2023-04-19T00:59:59.467Z,28.70
2023-04-19T01:00:59.458Z,27.60
2023-04-19T01:01:59.585Z,25.80
2023-04-19T01:02:59.480Z,24.80
2023-04-19T01:03:59.552Z,26.20
2023-04-19T01:04:59.412Z,25.30
2023-04-19T01:05:59.374Z,27.60
2023-04-19T01:06:59.386Z,28.50
2023-04-19T01:07:59.430Z,28.30
2023-04-19T01:08:59.357Z,27.50
2023-04-19T01:09:59.341Z,26.90
2023-04-19T01:10:59.349Z,28.30
2023-04-19T01:11:59.302Z,25.60
2023-04-19T01:12:59.293Z,28.80
2023-04-19T01:13:59.291Z,24.90
2023-04-19T01:14:59.295Z,25.20
2023-04-19T01:15:59.322Z,26.90
2023-04-19T01:16:59.246Z,26.60
2023-04-19T01:17:59.303Z,28.30
2023-04-19T01:18:59.236Z,28.90
2023-04-19T01:19:59.250Z,26.30
2023-04-19T01:20:59.232Z,28.50
2023-04-19T01:21:59.193Z,27.90
2023-04-19T01:22:59.173Z,29.70
2023-04-19T01:23:59.168Z,28.60
2023-04-19T01:24:59.196Z,26.20
2023-04-19T01:25:59.138Z,27.80
2023-04-19T01:26:59.135Z,31.00
2023-04-19T01:27:59.129Z,28.30
2023-04-19T01:28:59.131Z,27.40
2023-04-19T01:29:59.168Z,28.20
2023-04-19T01:30:59.209Z,30.70
2023-04-19T01:31:59.097Z,26.30
2023-04-19T01:32:59.079Z,30.10
2023-04-19T01:33:59.053Z,29.70
2023-04-19T01:34:59.048Z,25.90
2023-04-19T01:35:59.059Z,30.20
2023-04-19T01:36:59.045Z,28.40
2023-04-19T01:37:59.068Z,26.70
2023-04-19T01:38:58.994Z,34.10
2023-04-19T01:39:58.989Z,39.10
2023-04-19T01:40:58.990Z,62.90
2023-04-19T01:41:58.984Z,44.50
2023-04-19T01:42:58.991Z,31.90
2023-04-19T01:43:58.940Z,33.50
2023-04-19T01:44:58.947Z,44.40
2023-04-19T01:45:58.924Z,50.40
2023-04-19T01:46:58.960Z,47.30
2023-04-19T01:47:58.938Z,56.20
2023-04-19T01:48:58.891Z,42.10
2023-04-19T01:49:58.893Z,44.80
2023-04-19T01:50:58.883Z,68.50
2023-04-19T01:51:58.881Z,58.70
2023-04-19T01:52:58.856Z,70.40
2023-04-19T01:53:58.861Z,84.00
2023-04-19T01:54:58.828Z,53.50
2023-04-19T01:55:58.805Z,62.00
2023-04-19T01:56:58.794Z,64.40
2023-04-19T01:57:58.787Z,70.90
2023-04-19T01:58:58.791Z,63.90
2023-04-19T01:59:58.789Z,36.00
2023-04-19T02:00:58.814Z,37.70
2023-04-19T02:01:58.820Z,49.80
2023-04-19T02:02:59.053Z,58.70
2023-04-19T02:03:58.912Z,43.40
2023-04-19T02:04:58.701Z,47.10
2023-04-19T02:05:58.694Z,47.10
2023-04-19T02:06:58.724Z,47.20
2023-04-19T02:07:58.692Z,53.30
2023-04-19T02:08:58.662Z,46.20
2023-04-19T02:09:58.650Z,31.10
2023-04-19T02:10:58.638Z,38.00
2023-04-19T02:11:58.625Z,31.40
2023-04-19T02:12:58.664Z,29.20
2023-04-19T02:13:58.606Z,32.00
2023-04-19T02:14:58.592Z,25.80
2023-04-19T02:15:58.590Z,28.60
2023-04-19T02:16:58.630Z,28.00
2023-04-19T02:17:58.598Z,23.70
2023-04-19T02:18:58.582Z,23.40
2023-04-19T02:19:58.552Z,26.60
2023-04-19T02:20:58.528Z,24.00
2023-04-19T02:21:58.512Z,29.80
2023-04-19T02:22:58.526Z,26.00
2023-04-19T02:23:58.497Z,28.70
2023-04-19T02:24:58.495Z,49.50
2023-04-19T02:25:58.467Z,58.30
2023-04-19T02:26:58.480Z,39.20
2023-04-19T02:27:58.479Z,48.90
2023-04-19T02:28:58.444Z,57.50
2023-04-19T02:29:58.426Z,64.80
2023-04-19T02:30:58.434Z,44.30
2023-04-19T02:31:58.429Z,37.10
2023-04-19T02:32:58.452Z,32.20
2023-04-19T02:33:58.380Z,17.20
2023-04-19T02:34:58.369Z,19.40
2023-04-19T02:35:58.453Z,15.80
2023-04-19T02:36:58.379Z,17.70
2023-04-19T02:37:58.357Z,16.30
2023-04-19T02:38:58.323Z,17.00
2023-04-19T02:39:58.311Z,13.80
2023-04-19T02:40:58.306Z,12.30
2023-04-19T02:41:58.295Z,14.10
2023-04-19T02:42:58.357Z,12.60
2023-04-19T02:43:58.266Z,18.00
2023-04-19T02:44:58.264Z,14.20
2023-04-19T02:45:58.252Z,15.30
2023-04-19T02:46:58.232Z,10.60
2023-04-19T02:47:58.268Z,11.40
2023-04-19T02:48:58.220Z,11.90
2023-04-19T02:49:58.198Z,16.30
2023-04-19T02:50:58.187Z,18.10
2023-04-19T02:51:58.219Z,14.80
2023-04-19T02:52:58.185Z,26.70
2023-04-19T02:53:58.152Z,29.60
2023-04-19T02:54:58.152Z,16.90
2023-04-19T02:55:58.148Z,11.30
2023-04-19T02:56:58.121Z,10.50
2023-04-19T02:57:58.117Z,9.20
2023-04-19T02:58:58.113Z,11.00
2023-04-19T02:59:58.084Z,10.00
2023-04-19T03:00:58.138Z,10.00
2023-04-19T03:01:58.088Z,9.50
2023-04-19T03:02:58.199Z,10.40
2023-04-19T03:03:58.133Z,11.60
2023-04-19T03:04:58.050Z,18.40
2023-04-19T03:05:58.022Z,23.80
2023-04-19T03:06:58.021Z,18.90
2023-04-19T03:07:58.019Z,18.40
2023-04-19T03:08:57.984Z,23.60
2023-04-19T03:09:58.010Z,49.90
2023-04-19T03:10:57.983Z,78.50
2023-04-19T03:11:57.975Z,65.30
2023-04-19T03:12:57.956Z,99.40
2023-04-19T03:13:58.050Z,90.90
2023-04-19T03:14:57.917Z,44.20
2023-04-19T03:15:57.962Z,32.30
2023-04-19T03:16:57.917Z,26.00
2023-04-19T03:17:57.961Z,20.80
2023-04-19T03:18:57.889Z,24.80
2023-04-19T03:19:57.864Z,26.00
2023-04-19T03:20:57.857Z,31.40
2023-04-19T03:21:57.854Z,37.60
2023-04-19T03:22:57.824Z,26.30
2023-04-19T03:23:57.856Z,55.80
2023-04-19T03:24:57.825Z,28.50
2023-04-19T03:25:57.779Z,43.90
2023-04-19T03:26:57.805Z,37.80
2023-04-19T03:27:57.815Z,36.40
2023-04-19T03:28:57.776Z,43.80
2023-04-19T03:29:57.744Z,47.70
2023-04-19T03:30:57.777Z,31.60
2023-04-19T03:31:57.738Z,20.60
2023-04-19T03:32:57.742Z,18.30
2023-04-19T03:33:57.696Z,23.60
2023-04-19T03:34:57.676Z,16.00
2023-04-19T03:35:57.670Z,16.90
2023-04-19T03:36:57.696Z,12.20
2023-04-19T03:39:28.860Z,10.30
2023-04-19T03:40:28.816Z,33.70
2023-04-19T03:41:28.834Z,30.20
2023-04-19T03:42:29.313Z,25.00
2023-04-19T03:43:28.788Z,20.20
2023-04-19T03:44:28.796Z,24.30
2023-04-19T03:45:28.781Z,18.40
2023-04-19T03:46:28.802Z,19.60
2023-04-19T03:47:28.744Z,15.20
2023-04-19T03:48:28.722Z,14.80
2023-04-19T03:49:28.746Z,15.50
2023-04-19T03:50:28.719Z,13.40
2023-04-19T03:51:28.718Z,13.10
2023-04-19T03:52:28.672Z,10.40
2023-04-19T03:53:28.662Z,14.00
2023-04-19T03:54:28.675Z,10.40
2023-04-19T03:55:28.680Z,13.00
2023-04-19T03:56:28.626Z,12.30
2023-04-19T03:57:28.661Z,13.70
2023-04-19T03:58:28.616Z,29.40
2023-04-19T03:59:28.604Z,39.70
2023-04-19T04:00:28.590Z,40.80
2023-04-19T04:01:28.581Z,36.70
2023-04-19T04:02:28.632Z,32.20
2023-04-19T04:03:28.894Z,34.50
2023-04-19T04:04:28.810Z,25.30
2023-04-19T04:05:28.577Z,42.50
2023-04-19T04:06:28.517Z,44.30
2023-04-19T04:07:28.523Z,43.10
2023-04-19T04:08:28.484Z,55.90
2023-04-19T04:09:28.500Z,50.40
2023-04-19T04:10:28.474Z,63.30
2023-04-19T04:11:28.479Z,55.40
2023-04-19T04:12:28.437Z,52.70
2023-04-19T04:13:28.466Z,46.30
2023-04-19T04:14:28.414Z,56.10
2023-04-19T04:15:28.434Z,34.80
2023-04-19T04:16:28.518Z,39.60
2023-04-19T04:17:28.420Z,43.50
2023-04-19T04:18:28.400Z,43.30
2023-04-19T04:19:28.371Z,41.40
2023-04-19T04:20:28.372Z,37.40
2023-04-19T04:21:28.345Z,25.90
2023-04-19T04:22:28.321Z,54.70
2023-04-19T04:23:28.330Z,71.70
2023-04-19T04:24:28.298Z,63.90
2023-04-19T04:25:28.328Z,69.50
2023-04-19T04:26:28.278Z,59.20
2023-04-19T04:27:28.287Z,56.40
2023-04-19T04:28:28.287Z,53.50
2023-04-19T04:29:28.261Z,36.60
2023-04-19T04:30:28.252Z,62.50
2023-04-19T04:31:28.320Z,69.50
2023-04-19T04:32:28.249Z,90.40
2023-04-19T04:33:28.212Z,118.50
2023-04-19T04:34:28.200Z,230.30
2023-04-19T04:35:28.212Z,162.90
2023-04-19T04:36:28.185Z,112.90
2023-04-19T04:37:28.174Z,139.00
2023-04-19T04:38:28.158Z,125.50
2023-04-19T04:39:28.162Z,133.80
2023-04-19T04:40:28.136Z,133.50
2023-04-19T04:41:28.120Z,150.60
2023-04-19T04:42:28.110Z,125.70
2023-04-19T04:43:28.126Z,100.20
2023-04-19T04:44:28.359Z,113.50
2023-04-19T04:45:28.108Z,94.70
2023-04-19T04:46:28.071Z,85.90
2023-04-19T04:47:28.113Z,68.70
2023-04-19T04:48:28.053Z,76.40
2023-04-19T04:49:28.063Z,81.80
2023-04-19T04:50:28.030Z,79.20
2023-04-19T04:51:28.011Z,56.20
2023-04-19T04:52:28.000Z,78.00
2023-04-19T04:53:27.995Z,141.70
2023-04-19T04:54:28.001Z,133.70
2023-04-19T04:55:28.000Z,119.80
2023-04-19T04:56:28.057Z,93.70
2023-04-19T04:57:27.976Z,106.20
2023-04-19T04:58:27.957Z,201.50
2023-04-19T04:59:27.941Z,194.10
2023-04-19T05:00:27.915Z,226.90
2023-04-19T05:01:27.936Z,174.60
2023-04-19T05:02:27.934Z,153.60
2023-04-19T05:03:27.952Z,162.70
2023-04-19T05:04:27.890Z,179.10
2023-04-19T05:05:27.875Z,149.90
2023-04-19T05:06:27.846Z,272.70
2023-04-19T05:07:27.851Z,199.30
2023-04-19T05:08:27.842Z,179.00
2023-04-19T05:10:52.662Z,135.20
2023-04-19T05:11:52.661Z,131.70
2023-04-19T05:12:52.650Z,154.40
2023-04-19T05:13:52.650Z,146.10
2023-04-19T05:14:52.643Z,142.30
2023-04-19T05:15:52.732Z,132.80
2023-04-19T05:16:52.683Z,201.80
2023-04-19T05:17:52.702Z,182.00
2023-04-19T05:18:52.597Z,133.10
2023-04-19T05:19:52.549Z,95.50
2023-04-19T05:21:00.224Z,133.30
2023-04-19T05:21:52.557Z,126.50
2023-04-19T05:22:52.520Z,103.80
2023-04-19T05:24:00.206Z,131.70
2023-04-19T05:25:01.913Z,124.90
2023-04-19T05:26:00.166Z,130.90
2023-04-19T05:26:52.483Z,155.40
2023-04-19T05:27:52.471Z,151.80
2023-04-19T05:28:52.461Z,145.50
2023-04-19T05:29:52.466Z,117.30
2023-04-19T05:30:52.543Z,49.70
2023-04-19T05:31:52.517Z,32.90
2023-04-19T05:32:52.452Z,42.10
2023-04-19T05:33:52.406Z,15.40
2023-04-19T05:34:52.392Z,7.70
2023-04-19T05:35:52.402Z,7.90
2023-04-19T05:36:52.466Z,5.80
2023-04-19T05:37:52.351Z,6.70
2023-04-19T05:38:52.342Z,4.90
2023-04-19T05:39:52.353Z,5.60
2023-04-19T05:40:52.318Z,4.90
2023-04-19T05:41:52.487Z,4.20
2023-04-19T05:42:52.298Z,3.50
2023-04-19T05:43:52.304Z,6.50
2023-04-19T05:44:52.307Z,6.20
2023-04-19T05:45:52.304Z,5.60
2023-04-19T05:46:52.371Z,6.20
2023-04-19T05:47:52.326Z,6.20
2023-04-19T05:48:52.268Z,7.70
2023-04-19T05:49:52.243Z,8.90
2023-04-19T05:50:52.214Z,6.10
2023-04-19T05:51:52.202Z,4.30
2023-04-19T05:52:52.195Z,5.90
2023-04-19T05:53:52.997Z,4.00
2023-04-19T05:54:52.201Z,5.70
2023-04-19T05:55:52.157Z,4.70
2023-04-19T05:56:52.140Z,3.90
2023-04-19T05:57:52.131Z,5.00
2023-04-19T05:58:52.143Z,5.10
2023-04-19T05:59:52.120Z,4.70
2023-04-19T06:00:52.145Z,4.90
2023-04-19T06:01:52.138Z,4.70
2023-04-19T06:02:52.241Z,6.30
2023-04-19T06:03:52.443Z,7.60
2023-04-19T06:04:52.342Z,8.40
2023-04-19T06:05:52.119Z,6.70
2023-04-19T06:06:52.059Z,9.00
2023-04-19T06:07:55.499Z,9.00
2023-04-19T06:08:54.885Z,11.00
2023-04-19T06:09:52.015Z,9.30
2023-04-19T06:10:56.843Z,12.50
2023-04-19T06:11:53.053Z,13.20
2023-04-19T06:12:51.962Z,17.00
2023-04-19T06:13:51.999Z,13.10
2023-04-19T06:14:51.939Z,12.20
2023-04-19T06:15:51.971Z,15.10
2023-04-19T06:16:51.934Z,12.30
2023-04-19T06:17:52.104Z,13.00
2023-04-19T06:18:52.011Z,13.80
2023-04-19T06:19:51.950Z,11.40
2023-04-19T06:20:51.994Z,12.70
2023-04-19T06:21:51.872Z,13.90
2023-04-19T06:22:51.851Z,12.50
2023-04-19T06:23:51.851Z,22.20
2023-04-19T06:24:51.823Z,12.90
2023-04-19T06:25:51.841Z,12.40
2023-04-19T06:26:51.812Z,12.00
2023-04-19T06:27:51.805Z,14.20
2023-04-19T06:28:51.805Z,11.70
2023-04-19T06:29:51.775Z,11.50
2023-04-19T06:30:51.767Z,13.00
2023-04-19T06:31:51.810Z,11.90
2023-04-19T06:32:51.784Z,11.20
2023-04-19T06:33:51.748Z,17.40
2023-04-19T06:34:51.899Z,12.00
2023-04-19T06:35:51.702Z,12.00
2023-04-19T06:36:51.723Z,13.00
2023-04-19T06:37:52.178Z,13.20
2023-04-19T06:38:51.711Z,12.60
2023-04-19T06:39:51.666Z,10.90
2023-04-19T06:40:51.648Z,11.60
2023-04-19T06:41:51.644Z,11.80
2023-04-19T06:42:51.646Z,11.40
2023-04-19T06:43:51.645Z,11.20
2023-04-19T06:44:51.621Z,12.60
2023-04-19T06:45:52.011Z,10.10
2023-04-19T06:46:51.656Z,8.00
2023-04-19T06:47:51.686Z,8.70
2023-04-19T06:48:51.556Z,15.10
2023-04-19T06:49:51.571Z,16.40
2023-04-19T06:50:54.715Z,10.00
2023-04-19T06:51:51.535Z,8.60
2023-04-19T06:52:51.518Z,13.10
2023-04-19T06:53:51.505Z,32.40
2023-04-19T06:54:51.534Z,9.70
2023-04-19T06:55:51.495Z,8.90
2023-04-19T06:56:51.470Z,8.70
2023-04-19T06:57:51.476Z,8.90
2023-04-19T06:58:51.467Z,8.90
2023-04-19T06:59:51.454Z,9.40
2023-04-19T07:00:51.455Z,10.80
2023-04-19T07:01:51.619Z,8.80
2023-04-19T07:02:51.508Z,8.60
2023-04-19T07:03:51.515Z,6.60
2023-04-19T07:04:51.486Z,8.90
2023-04-19T07:05:51.412Z,8.20
2023-04-19T07:06:51.498Z,7.70
2023-04-19T07:07:51.366Z,7.10
2023-04-19T07:08:51.353Z,6.60
2023-04-19T07:09:51.322Z,7.50
2023-04-19T07:10:51.774Z,9.60
2023-04-19T07:11:51.336Z,6.70
2023-04-19T07:12:51.326Z,6.70
2023-04-19T07:13:51.284Z,7.80
2023-04-19T07:14:51.265Z,7.30
2023-04-19T07:15:51.317Z,7.00
2023-04-19T07:16:52.313Z,6.10
2023-04-19T07:17:51.283Z,9.80
2023-04-19T07:18:51.224Z,7.60
2023-04-19T07:19:51.230Z,5.20
2023-04-19T07:20:51.257Z,5.50
2023-04-19T07:21:51.206Z,5.60
2023-04-19T07:22:51.365Z,5.00
2023-04-19T07:23:51.205Z,6.70
2023-04-19T07:24:51.181Z,7.30
2023-04-19T07:25:51.164Z,10.10
2023-04-19T07:26:51.152Z,7.30
2023-04-19T07:27:52.300Z,8.30
2023-04-19T07:28:51.126Z,6.20
2023-04-19T07:29:51.145Z,4.70
2023-04-19T07:30:51.109Z,6.50
2023-04-19T07:31:51.208Z,6.70
2023-04-19T07:32:51.193Z,7.30
2023-04-19T07:33:51.055Z,4.10
2023-04-19T07:34:51.044Z,5.70
2023-04-19T07:35:51.218Z,4.20
2023-04-19T07:36:51.029Z,4.30
2023-04-19T07:37:51.030Z,5.10
2023-04-19T07:38:51.027Z,4.30
2023-04-19T07:39:51.721Z,5.20
2023-04-19T07:40:51.001Z,6.10
2023-04-19T07:41:51.013Z,6.50
2023-04-19T07:42:50.965Z,7.70
2023-04-19T07:43:50.950Z,6.30
2023-04-19T07:44:50.926Z,5.10
2023-04-19T07:45:50.939Z,6.80
2023-04-19T07:46:50.961Z,6.50
2023-04-19T07:47:50.962Z,6.80
2023-04-19T07:48:50.885Z,7.10
2023-04-19T07:49:50.901Z,9.70
2023-04-19T07:50:50.897Z,5.10
2023-04-19T07:51:50.873Z,4.50
2023-04-19T07:52:50.841Z,3.60
2023-04-19T07:53:50.878Z,3.40
2023-04-19T07:54:50.845Z,4.90
2023-04-19T07:55:50.808Z,6.40
2023-04-19T07:56:50.830Z,4.60
2023-04-19T07:57:50.781Z,4.10
2023-04-19T07:59:04.176Z,4.50
2023-04-19T07:59:51.788Z,5.40
2023-04-19T08:00:50.789Z,4.20
2023-04-19T08:01:50.899Z,3.90
2023-04-19T08:02:50.890Z,5.40
2023-04-19T08:03:50.888Z,5.40
2023-04-19T08:04:50.965Z,6.10
2023-04-19T08:05:50.878Z,8.50
2023-04-19T08:06:50.678Z,5.00
2023-04-19T08:07:50.687Z,3.10
2023-04-19T08:08:50.661Z,3.50
2023-04-19T08:09:50.681Z,4.40
2023-04-19T08:10:50.695Z,3.20
2023-04-19T08:11:50.667Z,4.30
2023-04-19T08:13:04.344Z,5.20
2023-04-19T08:14:04.678Z,4.30
2023-04-19T08:15:02.531Z,4.10
2023-04-19T08:16:24.559Z,3.30
2023-04-19T08:17:50.725Z,2.70
2023-04-19T08:18:50.549Z,4.30
2023-04-19T08:19:50.553Z,5.20
2023-04-19T08:20:50.523Z,7.50
2023-04-19T08:21:50.536Z,6.80
2023-04-19T08:22:50.553Z,5.00
2023-04-19T08:23:52.594Z,3.70
2023-04-19T08:24:50.479Z,5.10
2023-04-19T08:25:50.476Z,10.10
2023-04-19T08:27:00.064Z,7.70
2023-04-19T08:27:50.648Z,6.10
2023-04-19T08:28:50.617Z,4.80
2023-04-19T08:29:50.512Z,3.70
2023-04-19T08:30:50.616Z,4.10
2023-04-19T08:31:50.440Z,3.60
2023-04-19T08:32:50.489Z,5.20
2023-04-19T08:33:50.432Z,4.50
2023-04-19T08:34:50.392Z,8.90
2023-04-19T08:35:50.370Z,9.90
2023-04-19T08:37:00.254Z,3.00
2023-04-19T08:37:51.338Z,7.30
2023-04-19T08:39:01.875Z,3.90
2023-04-19T08:39:51.321Z,5.70
2023-04-19T08:40:50.298Z,6.10
2023-04-19T08:41:55.961Z,4.90
2023-04-19T08:42:51.319Z,4.20
2023-04-19T08:43:50.290Z,4.50
2023-04-19T08:45:06.369Z,4.20
2023-04-19T08:47:00.748Z,4.70
2023-04-19T08:48:02.157Z,3.90
2023-04-19T08:49:00.595Z,3.10
2023-04-19T08:50:11.112Z,3.00
2023-04-19T08:51:05.439Z,3.20
2023-04-19T08:52:00.501Z,4.20
2023-04-19T08:53:08.542Z,4.90
2023-04-19T08:54:01.484Z,8.40
2023-04-19T08:55:00.499Z,4.20
2023-04-19T08:56:10.576Z,4.00
2023-04-19T08:57:01.442Z,2.50
2023-04-19T08:58:00.447Z,11.40
2023-04-19T08:59:19.511Z,4.50
2023-04-19T09:00:01.472Z,6.20
2023-04-19T09:01:00.443Z,3.50
2023-04-19T09:02:00.535Z,2.10
2023-04-19T09:03:00.561Z,2.80
2023-04-19T09:04:07.267Z,3.70
2023-04-19T09:05:01.771Z,3.90
2023-04-19T09:06:00.471Z,3.90
2023-04-19T09:07:00.349Z,3.70
2023-04-19T09:08:01.146Z,2.80
2023-04-19T09:09:00.325Z,3.70
2023-04-19T09:10:03.730Z,4.00
2023-04-19T09:11:00.309Z,3.00
2023-04-19T09:12:00.354Z,3.10
2023-04-19T09:13:00.290Z,3.90
2023-04-19T09:14:00.370Z,3.90
2023-04-19T09:15:02.288Z,4.20
2023-04-19T09:16:00.280Z,3.30
2023-04-19T09:17:00.252Z,4.20
2023-04-19T09:18:00.264Z,2.70
2023-04-19T09:19:22.485Z,2.50
2023-04-19T09:20:01.187Z,4.60
2023-04-19T09:21:00.172Z,3.20
2023-04-19T09:22:00.177Z,6.40
2023-04-19T09:23:00.146Z,5.00
2023-04-19T09:24:01.351Z,4.20
2023-04-19T09:26:22.062Z,4.20
2023-04-19T09:27:01.100Z,3.50
2023-04-19T09:28:00.099Z,4.30
2023-04-19T09:29:00.129Z,4.50
2023-04-19T09:30:00.196Z,5.10
2023-04-19T09:31:07.025Z,3.60
2023-04-19T09:32:01.184Z,3.90
2023-04-19T09:33:00.072Z,3.70
2023-04-19T09:34:00.066Z,3.50
2023-04-19T09:35:00.043Z,3.70
2023-04-19T09:36:00.016Z,3.80
2023-04-19T09:37:08.992Z,5.30
2023-04-19T09:38:05.285Z,3.90
2023-04-19T09:39:00.956Z,3.70
2023-04-19T09:39:59.944Z,3.80
2023-04-19T09:40:59.940Z,2.80
2023-04-19T09:41:59.953Z,3.80
2023-04-19T09:43:13.032Z,3.40
2023-04-19T09:44:15.567Z,5.30
2023-04-19T09:45:28.370Z,3.60
2023-04-19T09:46:00.980Z,3.30
2023-04-19T09:46:59.899Z,3.70
2023-04-19T09:47:59.913Z,3.90
2023-04-19T09:49:01.931Z,3.20
2023-04-19T09:51:04.545Z,3.60
2023-04-19T09:52:00.819Z,3.30
2023-04-19T09:52:59.825Z,3.00
2023-04-19T09:53:59.797Z,7.20
2023-04-19T09:54:59.785Z,3.70
2023-04-19T09:56:02.212Z,3.10
2023-04-19T09:57:01.474Z,4.30
2023-04-19T09:57:59.751Z,3.70
2023-04-19T09:59:12.635Z,3.00
2023-04-19T10:00:00.731Z,4.00
2023-04-19T10:01:10.462Z,4.00
2023-04-19T10:02:00.943Z,4.20
2023-04-19T10:02:59.744Z,3.80
2023-04-19T10:04:10.262Z,4.70
2023-04-19T10:05:16.426Z,4.20
2023-04-19T10:06:10.259Z,3.10
2023-04-19T10:07:25.348Z,3.30
2023-04-19T10:08:00.723Z,3.90
2023-04-19T10:08:59.616Z,3.50
2023-04-19T10:10:59.596Z,5.30
2023-04-19T10:12:07.874Z,2.60
2023-04-19T10:13:16.067Z,3.40
2023-04-19T10:14:00.563Z,3.80
2023-04-19T10:14:59.550Z,3.10
2023-04-19T10:16:11.743Z,4.60
2023-04-19T10:17:00.568Z,4.00
2023-04-19T10:17:59.632Z,3.00
2023-04-19T10:18:59.508Z,4.90
2023-04-19T10:19:59.495Z,3.80
2023-04-19T10:20:59.488Z,4.50
2023-04-19T10:21:59.467Z,3.40
2023-04-19T10:22:59.482Z,3.80
2023-04-19T10:23:59.477Z,3.30
2023-04-19T10:24:59.435Z,3.60
2023-04-19T10:25:59.449Z,4.20
2023-04-19T10:26:59.422Z,4.20
2023-04-19T10:27:59.398Z,4.90
2023-04-19T10:28:59.388Z,4.10
2023-04-19T10:29:59.407Z,4.60
2023-04-19T10:30:59.401Z,3.50
2023-04-19T10:31:59.400Z,3.90
2023-04-19T10:32:59.422Z,3.60
2023-04-19T10:33:59.359Z,4.30
2023-04-19T10:34:59.342Z,5.60
2023-04-19T10:35:59.321Z,5.80
2023-04-19T10:36:59.320Z,2.90
2023-04-19T10:37:59.306Z,3.00
2023-04-19T10:38:59.311Z,4.60
2023-04-19T10:39:59.259Z,3.80
2023-04-19T10:40:59.277Z,4.90
2023-04-19T10:41:59.333Z,3.70
2023-04-19T10:42:59.257Z,3.40
2023-04-19T10:43:59.216Z,3.10
2023-04-19T10:44:59.208Z,4.50
2023-04-19T10:45:59.236Z,4.00
2023-04-19T10:46:59.190Z,4.00
2023-04-19T10:47:59.191Z,3.70
2023-04-19T10:48:59.165Z,3.50
2023-04-19T10:49:59.169Z,4.50
2023-04-19T10:50:59.157Z,3.80
2023-04-19T10:51:59.136Z,3.40
2023-04-19T10:52:59.119Z,3.50
2023-04-19T10:53:59.157Z,3.20
2023-04-19T10:54:59.094Z,3.30
2023-04-19T10:55:59.077Z,4.80
2023-04-19T10:56:59.072Z,3.40
2023-04-19T10:57:59.073Z,4.10
2023-04-19T10:58:59.069Z,3.80
2023-04-19T10:59:59.055Z,3.40
2023-04-19T11:00:59.088Z,6.80
2023-04-19T11:01:59.197Z,4.60
2023-04-19T11:02:59.185Z,4.90
2023-04-19T11:03:59.076Z,6.60
2023-04-19T11:04:59.001Z,4.90
2023-04-19T11:05:59.037Z,5.00
2023-04-19T11:06:58.959Z,3.90
2023-04-19T11:07:58.944Z,4.80
2023-04-19T11:08:58.935Z,5.30
2023-04-19T11:09:58.979Z,4.40
2023-04-19T11:10:58.907Z,5.00
2023-04-19T11:11:58.924Z,4.00
2023-04-19T11:12:58.907Z,4.30
2023-04-19T11:13:58.874Z,5.30
2023-04-19T11:14:58.881Z,4.80
2023-04-19T11:15:58.932Z,4.00
2023-04-19T11:16:58.959Z,4.50
2023-04-19T11:18:11.409Z,4.50
2023-04-19T11:18:59.815Z,4.70
2023-04-19T11:19:58.806Z,3.40
2023-04-19T11:20:58.821Z,3.50
2023-04-19T11:21:58.830Z,4.30
2023-04-19T11:22:58.792Z,5.70
2023-04-19T11:23:58.777Z,5.10
2023-04-19T11:24:58.750Z,5.10
2023-04-19T11:25:58.801Z,4.50
2023-04-19T11:26:58.722Z,6.30
2023-04-19T11:27:58.733Z,4.20
2023-04-19T11:28:58.734Z,4.20
2023-04-19T11:29:58.700Z,4.30
2023-04-19T11:30:58.718Z,4.20
2023-04-19T11:31:58.694Z,3.70
2023-04-19T11:32:58.754Z,3.90
2023-04-19T11:33:58.651Z,3.50
2023-04-19T11:34:58.634Z,3.80
2023-04-19T11:35:58.652Z,3.50
2023-04-19T11:36:58.669Z,3.70
2023-04-19T11:37:58.722Z,3.30
2023-04-19T11:38:58.638Z,3.10
2023-04-19T11:39:58.574Z,3.60
2023-04-19T11:40:58.849Z,4.40
2023-04-19T11:41:58.559Z,4.60
2023-04-19T11:42:58.565Z,4.00
2023-04-19T11:43:58.550Z,4.20
2023-04-19T11:44:58.522Z,3.50
2023-04-19T11:45:58.540Z,4.20
2023-04-19T11:46:58.578Z,4.60
2023-04-19T11:47:58.594Z,4.50
2023-04-19T11:48:58.479Z,4.00
2023-04-19T11:49:58.468Z,3.90
2023-04-19T11:50:58.460Z,3.70
2023-04-19T11:51:58.452Z,5.70
2023-04-19T11:52:58.430Z,4.20
2023-04-19T11:53:58.460Z,5.30
2023-04-19T11:54:58.414Z,4.90
2023-04-19T11:55:58.391Z,3.90
2023-04-19T11:56:58.429Z,5.10
2023-04-19T11:57:58.382Z,3.40
2023-04-19T11:58:58.383Z,4.40
2023-04-19T11:59:58.348Z,3.70
2023-04-19T12:00:58.472Z,5.50
2023-04-19T12:01:58.350Z,3.60
2023-04-19T12:02:58.577Z,5.20
2023-04-19T12:03:58.630Z,3.90
2023-04-19T12:04:58.472Z,4.40
2023-04-19T12:05:58.463Z,4.00
2023-04-19T12:06:58.269Z,5.20
2023-04-19T12:07:58.263Z,4.40
2023-04-19T12:08:58.253Z,6.30
2023-04-19T12:09:58.269Z,6.00
2023-04-19T12:10:58.272Z,6.10
2023-04-19T12:11:58.239Z,4.50
2023-04-19T12:12:58.217Z,4.10
2023-04-19T12:13:58.186Z,6.40
2023-04-19T12:14:58.217Z,4.50
2023-04-19T12:15:58.708Z,6.40
2023-04-19T12:16:58.296Z,5.80
2023-04-19T12:17:58.177Z,5.30
2023-04-19T12:18:58.130Z,5.90
2023-04-19T12:19:58.143Z,4.20
2023-04-19T12:21:01.276Z,4.00
2023-04-19T12:21:58.113Z,5.00
2023-04-19T12:22:58.086Z,5.20
2023-04-19T12:23:58.112Z,3.30
2023-04-19T12:24:58.059Z,5.50
2023-04-19T12:25:58.089Z,4.00
2023-04-19T12:26:58.061Z,4.70
2023-04-19T12:27:58.045Z,5.70
2023-04-19T12:28:58.063Z,5.60
2023-04-19T12:29:58.010Z,3.50
2023-04-19T12:30:57.996Z,3.10
2023-04-19T12:31:58.026Z,4.60
2023-04-19T12:32:58.161Z,4.70
2023-04-19T12:33:57.979Z,5.50
2023-04-19T12:35:06.880Z,4.30
2023-04-19T12:35:57.997Z,3.40
2023-04-19T12:36:58.026Z,3.50
2023-04-19T12:38:06.966Z,3.80
2023-04-19T12:38:57.903Z,6.00
2023-04-19T12:40:05.068Z,5.40
2023-04-19T12:41:05.670Z,3.80
2023-04-19T12:41:57.933Z,5.30
2023-04-19T12:42:57.858Z,4.80
2023-04-19T12:43:57.875Z,4.00
2023-04-19T12:44:57.909Z,3.80
2023-04-19T12:45:58.052Z,4.20
2023-04-19T12:46:58.061Z,6.50
2023-04-19T12:47:57.830Z,4.70
2023-04-19T12:48:57.797Z,3.70
2023-04-19T12:49:57.777Z,6.00
2023-04-19T12:50:57.781Z,4.90
2023-04-19T12:51:57.785Z,4.60
2023-04-19T12:52:57.752Z,3.90
2023-04-19T12:53:57.737Z,3.40
2023-04-19T12:54:57.717Z,4.60
2023-04-19T12:55:57.720Z,5.00
2023-04-19T12:56:57.745Z,4.10
2023-04-19T12:57:57.716Z,4.30
2023-04-19T12:58:57.695Z,5.70
2023-04-19T12:59:57.660Z,4.50
2023-04-19T13:00:57.647Z,4.30
2023-04-19T13:01:57.793Z,5.00
2023-04-19T13:02:57.773Z,4.20
2023-04-19T13:03:59.387Z,5.00
2023-04-19T13:04:57.708Z,6.10
2023-04-19T13:05:57.592Z,4.50
2023-04-19T13:06:57.613Z,3.90
2023-04-19T13:07:57.592Z,4.30
2023-04-19T13:09:00.834Z,5.80
2023-04-19T13:09:58.293Z,4.50
2023-04-19T13:10:57.569Z,3.30
2023-04-19T13:11:57.544Z,3.30
2023-04-19T13:12:57.558Z,4.30
2023-04-19T13:13:57.515Z,5.00
2023-04-19T13:14:57.484Z,3.60
2023-04-19T13:15:57.525Z,4.90
2023-04-19T13:16:57.496Z,3.60